createdAt,value
2018-03-31T00:00:55.813Z,87.19
2018-03-31T00:01:55.829Z,87.28
2018-03-31T00:02:55.849Z,86.90
2018-03-31T00:03:55.864Z,86.80
2018-03-31T00:04:55.882Z,86.99
2018-03-31T00:05:55.899Z,86.90
2018-03-31T00:06:55.918Z,86.99
2018-03-31T00:07:55.937Z,86.80
2018-03-31T00:08:55.952Z,86.90
2018-03-31T00:09:55.971Z,87.09
2018-03-31T00:10:55.989Z,86.99
2018-03-31T00:11:56.006Z,87.19
2018-03-31T00:12:56.024Z,86.90
2018-03-31T00:13:56.046Z,86.80
2018-03-31T00:14:56.061Z,86.90
2018-03-31T00:15:56.078Z,86.71
2018-03-31T00:16:56.096Z,86.80
2018-03-31T00:17:56.114Z,86.90
2018-03-31T00:18:56.134Z,87.09
2018-03-31T00:19:56.151Z,86.90
2018-03-31T00:20:56.167Z,86.61
2018-03-31T00:21:56.185Z,86.61
2018-03-31T00:22:56.204Z,86.90
2018-03-31T00:23:56.222Z,86.71
2018-03-31T00:24:56.239Z,86.61
2018-03-31T00:25:56.257Z,86.61
2018-03-31T00:26:56.275Z,86.90
2018-03-31T00:27:56.293Z,86.90
2018-03-31T00:28:56.310Z,87.09
2018-03-31T00:29:56.328Z,86.71
2018-03-31T00:30:56.346Z,86.61
2018-03-31T00:31:56.364Z,86.90
2018-03-31T00:32:56.380Z,86.71
2018-03-31T00:33:56.400Z,86.71
2018-03-31T00:34:56.419Z,86.61
2018-03-31T00:35:56.436Z,86.61
2018-03-31T00:36:56.453Z,86.52
2018-03-31T00:37:56.471Z,86.52
2018-03-31T00:38:56.502Z,86.71
2018-03-31T00:39:56.508Z,86.71
2018-03-31T00:40:56.570Z,86.61
2018-03-31T00:41:56.544Z,86.14
2018-03-31T00:42:56.561Z,86.61
2018-03-31T00:43:56.579Z,86.61
2018-03-31T00:44:56.595Z,86.33
2018-03-31T00:45:56.614Z,86.33
2018-03-31T00:46:56.633Z,86.14
2018-03-31T00:47:56.650Z,86.33
2018-03-31T00:48:56.668Z,86.33
2018-03-31T00:49:56.685Z,86.14
2018-03-31T00:50:56.704Z,86.33
2018-03-31T00:51:56.768Z,86.71
2018-03-31T00:52:56.739Z,86.24
2018-03-31T00:53:56.758Z,86.71
2018-03-31T00:54:56.777Z,86.61
2018-03-31T00:55:56.794Z,86.61
2018-03-31T00:56:56.818Z,86.43
2018-03-31T00:57:56.830Z,86.71
2018-03-31T00:58:56.846Z,86.33
2018-03-31T00:59:56.865Z,86.61
2018-03-31T01:00:56.881Z,86.61
2018-03-31T01:01:56.900Z,86.61
2018-03-31T01:02:56.918Z,86.71
2018-03-31T01:03:56.935Z,86.67
2018-03-31T01:04:56.953Z,86.76
2018-03-31T01:05:56.977Z,86.80
2018-03-31T01:06:57.002Z,86.52
2018-03-31T01:07:57.007Z,86.47
2018-03-31T01:08:57.024Z,86.47
2018-03-31T01:09:57.042Z,86.38
2018-03-31T01:10:57.072Z,86.47
2018-03-31T01:11:57.078Z,86.86
2018-03-31T01:12:57.094Z,86.95
2018-03-31T01:13:57.114Z,87.05
2018-03-31T01:14:57.131Z,86.86
2018-03-31T01:15:57.155Z,86.67
2018-03-31T01:16:57.166Z,86.95
2018-03-31T01:17:57.184Z,86.67
2018-03-31T01:18:57.202Z,86.76
2018-03-31T01:19:57.222Z,86.95
2018-03-31T01:20:57.237Z,86.95
2018-03-31T01:21:57.259Z,86.67
2018-03-31T01:22:57.272Z,86.86
2018-03-31T01:23:57.297Z,86.76
2018-03-31T01:24:57.308Z,86.95
2018-03-31T01:25:57.326Z,86.67
2018-03-31T01:26:57.344Z,86.76
2018-03-31T01:27:57.367Z,86.86
2018-03-31T01:28:57.379Z,86.67
2018-03-31T01:29:57.396Z,87.24
2018-03-31T01:30:57.414Z,87.24
2018-03-31T01:31:57.434Z,86.86
2018-03-31T01:32:57.449Z,87.24
2018-03-31T01:33:57.467Z,87.05
2018-03-31T01:34:57.485Z,86.67
2018-03-31T01:35:57.503Z,86.67
2018-03-31T01:36:57.521Z,87.14
2018-03-31T01:37:57.538Z,87.34
2018-03-31T01:38:57.556Z,87.05
2018-03-31T01:39:57.574Z,86.95
2018-03-31T01:40:57.591Z,87.05
2018-03-31T01:41:57.609Z,86.86
2018-03-31T01:42:57.626Z,87.14
2018-03-31T01:43:57.644Z,87.62
2018-03-31T01:44:57.663Z,87.62
2018-03-31T01:45:57.679Z,87.71
2018-03-31T01:46:57.697Z,87.52
2018-03-31T01:47:57.714Z,87.43
2018-03-31T01:48:57.732Z,87.71
2018-03-31T01:49:57.749Z,87.24
2018-03-31T01:50:57.766Z,87.14
2018-03-31T01:51:57.784Z,87.43
2018-03-31T01:52:57.801Z,87.81
2018-03-31T01:53:57.819Z,88.00
2018-03-31T01:54:57.837Z,88.00
2018-03-31T01:55:57.854Z,87.71
2018-03-31T01:56:57.871Z,87.81
2018-03-31T01:57:57.888Z,87.90
2018-03-31T01:58:57.906Z,87.90
2018-03-31T01:59:57.924Z,87.81
2018-03-31T02:00:57.941Z,87.71
2018-03-31T02:01:57.961Z,87.81
2018-03-31T02:02:57.977Z,87.81
2018-03-31T02:03:57.994Z,87.81
2018-03-31T02:04:58.012Z,87.71
2018-03-31T02:05:58.029Z,87.34
2018-03-31T02:06:58.046Z,87.52
2018-03-31T02:07:58.064Z,87.71
2018-03-31T02:08:58.086Z,87.81
2018-03-31T02:09:58.099Z,87.90
2018-03-31T02:10:58.116Z,88.00
2018-03-31T02:11:58.134Z,87.90
2018-03-31T02:12:58.152Z,88.09
2018-03-31T02:13:58.168Z,88.00
2018-03-31T02:14:58.186Z,87.81
2018-03-31T02:15:58.203Z,88.09
2018-03-31T02:16:58.221Z,88.00
2018-03-31T02:17:58.239Z,88.19
2018-03-31T02:18:58.259Z,88.00
2018-03-31T02:19:58.274Z,88.00
2018-03-31T02:20:58.292Z,87.90
2018-03-31T02:21:58.308Z,87.90
2018-03-31T02:22:58.330Z,88.57
2018-03-31T02:23:58.348Z,87.90
2018-03-31T02:24:58.361Z,87.90
2018-03-31T02:25:58.381Z,87.90
2018-03-31T02:26:58.399Z,88.76
2018-03-31T02:27:58.413Z,88.57
2018-03-31T02:28:58.430Z,88.28
2018-03-31T02:29:58.447Z,88.57
2018-03-31T02:30:58.468Z,88.57
2018-03-31T02:31:58.488Z,88.57
2018-03-31T02:32:58.500Z,88.57
2018-03-31T02:33:58.520Z,88.67
2018-03-31T02:34:58.538Z,88.57
2018-03-31T02:35:58.557Z,88.76
2018-03-31T02:36:58.571Z,88.43
2018-03-31T02:37:58.588Z,88.76
2018-03-31T02:38:58.604Z,88.85
2018-03-31T02:39:58.622Z,88.76
2018-03-31T02:40:58.638Z,88.81
2018-03-31T02:41:58.656Z,89.00
2018-03-31T02:42:58.678Z,89.14
2018-03-31T02:43:58.693Z,89.19
2018-03-31T02:44:58.711Z,88.85
2018-03-31T02:45:58.726Z,89.14
2018-03-31T02:46:58.743Z,89.28
2018-03-31T02:47:58.761Z,89.38
2018-03-31T02:48:58.777Z,89.28
2018-03-31T02:49:58.794Z,89.19
2018-03-31T02:50:58.813Z,89.67
2018-03-31T02:51:58.830Z,89.57
2018-03-31T02:52:58.846Z,89.38
2018-03-31T02:53:58.864Z,89.57
2018-03-31T02:54:58.883Z,89.38
2018-03-31T02:55:58.900Z,89.23
2018-03-31T02:56:58.915Z,89.42
2018-03-31T02:57:58.935Z,89.47
2018-03-31T02:58:58.951Z,89.67
2018-03-31T02:59:58.967Z,89.57
2018-03-31T03:00:58.984Z,89.47
2018-03-31T03:01:59.002Z,89.57
2018-03-31T03:02:59.022Z,89.23
2018-03-31T03:03:59.048Z,89.38
2018-03-31T03:04:59.055Z,89.19
2018-03-31T03:05:59.072Z,90.23
2018-03-31T03:06:59.089Z,89.95
2018-03-31T03:07:59.107Z,90.05
2018-03-31T03:08:59.124Z,89.52
2018-03-31T03:09:59.141Z,90.28
2018-03-31T03:10:59.161Z,90.23
2018-03-31T03:11:59.176Z,90.28
2018-03-31T03:12:59.192Z,90.28
2018-03-31T03:13:59.210Z,89.90
2018-03-31T03:14:59.228Z,90.05
2018-03-31T03:15:59.245Z,89.80
2018-03-31T03:16:59.262Z,90.14
2018-03-31T03:17:59.280Z,89.86
2018-03-31T03:18:59.297Z,89.86
2018-03-31T03:19:59.315Z,90.05
2018-03-31T03:20:59.331Z,90.05
2018-03-31T03:21:59.350Z,90.05
2018-03-31T03:22:59.366Z,90.33
2018-03-31T03:23:59.384Z,90.05
2018-03-31T03:24:59.400Z,90.52
2018-03-31T03:25:59.419Z,90.61
2018-03-31T03:26:59.436Z,90.42
2018-03-31T03:27:59.453Z,90.42
2018-03-31T03:28:59.469Z,90.42
2018-03-31T03:29:59.489Z,90.42
2018-03-31T03:30:59.505Z,90.14
2018-03-31T03:31:59.521Z,90.23
2018-03-31T03:32:59.544Z,90.23
2018-03-31T03:33:59.556Z,90.14
2018-03-31T03:34:59.579Z,90.52
2018-03-31T03:35:59.591Z,90.23
2018-03-31T03:36:59.607Z,90.23
2018-03-31T03:37:59.625Z,90.33
2018-03-31T03:38:59.643Z,90.80
2018-03-31T03:39:59.660Z,90.90
2018-03-31T03:40:59.676Z,89.95
2018-03-31T03:41:59.694Z,90.99
2018-03-31T03:42:59.712Z,90.90
2018-03-31T03:43:59.729Z,91.09
2018-03-31T03:44:59.745Z,90.80
2018-03-31T03:45:59.763Z,90.90
2018-03-31T03:46:59.783Z,90.80
2018-03-31T03:47:59.798Z,90.99
2018-03-31T03:48:59.815Z,90.90
2018-03-31T03:49:59.832Z,91.09
2018-03-31T03:50:59.849Z,91.13
2018-03-31T03:51:59.869Z,91.13
2018-03-31T03:52:59.889Z,90.66
2018-03-31T03:53:59.902Z,90.94
2018-03-31T03:54:59.919Z,90.75
2018-03-31T03:55:59.937Z,91.13
2018-03-31T03:56:59.955Z,90.66
2018-03-31T03:57:59.972Z,90.75
2018-03-31T03:58:59.989Z,90.85
2018-03-31T04:00:00.007Z,91.13
2018-03-31T04:01:00.024Z,91.04
2018-03-31T04:02:00.040Z,90.85
2018-03-31T04:03:00.059Z,91.04
2018-03-31T04:04:00.077Z,90.85
2018-03-31T04:05:00.095Z,90.94
2018-03-31T04:06:00.111Z,90.75
2018-03-31T04:07:00.134Z,91.33
2018-03-31T04:08:00.146Z,90.75
2018-03-31T04:09:00.164Z,91.33
2018-03-31T04:10:00.181Z,91.13
2018-03-31T04:11:00.200Z,91.23
2018-03-31T04:12:00.217Z,91.52
2018-03-31T04:13:00.234Z,91.80
2018-03-31T04:14:00.251Z,91.52
2018-03-31T04:15:00.270Z,91.61
2018-03-31T04:16:00.286Z,91.52
2018-03-31T04:17:00.303Z,91.61
2018-03-31T04:18:00.321Z,91.47
2018-03-31T04:19:00.339Z,91.94
2018-03-31T04:20:00.357Z,91.75
2018-03-31T04:21:00.376Z,91.94
2018-03-31T04:22:00.411Z,91.56
2018-03-31T04:23:00.409Z,91.71
2018-03-31T04:24:00.427Z,91.66
2018-03-31T04:25:00.444Z,91.94
2018-03-31T04:26:00.462Z,92.04
2018-03-31T04:27:00.479Z,91.47
2018-03-31T04:28:00.502Z,91.56
2018-03-31T04:29:00.514Z,91.47
2018-03-31T04:30:00.532Z,91.47
2018-03-31T04:31:00.549Z,91.47
2018-03-31T04:32:00.566Z,92.13
2018-03-31T04:33:00.581Z,91.66
2018-03-31T04:34:00.601Z,91.94
2018-03-31T04:35:00.619Z,92.32
2018-03-31T04:36:00.636Z,92.13
2018-03-31T04:37:00.652Z,92.13
2018-03-31T04:38:00.669Z,92.23
2018-03-31T04:39:00.688Z,92.61
2018-03-31T04:40:00.706Z,92.71
2018-03-31T04:41:00.721Z,92.42
2018-03-31T04:42:00.738Z,92.23
2018-03-31T04:43:00.757Z,92.42
2018-03-31T04:44:00.773Z,92.42
2018-03-31T04:45:00.791Z,92.32
2018-03-31T04:46:00.808Z,92.32
2018-03-31T04:47:00.825Z,92.13
2018-03-31T04:48:00.842Z,92.23
2018-03-31T04:49:00.859Z,92.13
2018-03-31T04:50:00.877Z,92.61
2018-03-31T04:51:00.894Z,92.51
2018-03-31T04:52:00.911Z,92.23
2018-03-31T04:53:00.927Z,92.51
2018-03-31T04:54:00.946Z,92.61
2018-03-31T04:55:00.962Z,92.61
2018-03-31T04:56:00.981Z,92.13
2018-03-31T04:57:00.998Z,92.61
2018-03-31T04:58:01.016Z,92.61
2018-03-31T04:59:01.032Z,92.51
2018-03-31T05:00:01.048Z,93.08
2018-03-31T05:01:01.064Z,92.71
2018-03-31T05:02:01.088Z,92.99
2018-03-31T05:03:01.102Z,92.90
2018-03-31T05:04:01.116Z,92.71
2018-03-31T05:05:01.133Z,92.61
2018-03-31T05:06:01.158Z,92.71
2018-03-31T05:07:01.172Z,92.42
2018-03-31T05:08:01.185Z,92.75
2018-03-31T05:09:01.202Z,92.80
2018-03-31T05:10:01.220Z,92.90
2018-03-31T05:11:01.236Z,92.94
2018-03-31T05:12:01.287Z,93.08
2018-03-31T05:13:01.312Z,93.18
2018-03-31T05:14:01.286Z,93.37
2018-03-31T05:15:01.304Z,93.37
2018-03-31T05:16:01.322Z,92.99
2018-03-31T05:17:01.337Z,92.99
2018-03-31T05:18:01.354Z,93.27
2018-03-31T05:19:01.372Z,93.60
2018-03-31T05:20:01.390Z,93.37
2018-03-31T05:21:01.404Z,93.41
2018-03-31T05:22:01.424Z,93.41
2018-03-31T05:23:01.442Z,93.60
2018-03-31T05:24:01.457Z,93.41
2018-03-31T05:25:01.473Z,93.51
2018-03-31T05:26:01.493Z,93.32
2018-03-31T05:27:01.507Z,93.23
2018-03-31T05:28:01.524Z,93.04
2018-03-31T05:29:01.540Z,93.70
2018-03-31T05:30:01.557Z,93.80
2018-03-31T05:31:01.575Z,93.80
2018-03-31T05:32:01.592Z,93.80
2018-03-31T05:33:01.608Z,93.70
2018-03-31T05:34:01.625Z,93.70
2018-03-31T05:35:01.642Z,93.70
2018-03-31T05:36:01.660Z,93.60
2018-03-31T05:37:01.676Z,94.18
2018-03-31T05:38:01.692Z,93.51
2018-03-31T05:39:01.710Z,94.08
2018-03-31T05:40:01.728Z,94.18
2018-03-31T05:41:01.743Z,94.08
2018-03-31T05:42:01.761Z,94.18
2018-03-31T05:43:01.779Z,94.08
2018-03-31T05:44:01.794Z,94.08
2018-03-31T05:45:01.812Z,94.08
2018-03-31T05:46:01.828Z,94.08
2018-03-31T05:47:01.845Z,94.23
2018-03-31T05:48:01.862Z,93.84
2018-03-31T05:49:01.881Z,94.23
2018-03-31T05:50:01.895Z,94.03
2018-03-31T05:51:01.912Z,94.13
2018-03-31T05:52:01.938Z,94.03
2018-03-31T05:53:01.946Z,93.75
2018-03-31T05:54:01.963Z,94.03
2018-03-31T05:55:01.981Z,94.13
2018-03-31T05:56:01.998Z,94.79
2018-03-31T05:57:02.014Z,94.51
2018-03-31T05:58:02.031Z,94.60
2018-03-31T05:59:02.051Z,94.60
2018-03-31T06:00:02.071Z,94.32
2018-03-31T06:01:02.082Z,94.42
2018-03-31T06:02:02.101Z,94.70
2018-03-31T06:03:02.117Z,94.60
2018-03-31T06:04:02.134Z,94.51
2018-03-31T06:05:02.152Z,94.42
2018-03-31T06:06:02.168Z,94.89
2018-03-31T06:07:02.186Z,95.08
2018-03-31T06:08:02.203Z,94.98
2018-03-31T06:09:02.220Z,94.79
2018-03-31T06:10:02.236Z,94.98
2018-03-31T06:11:02.255Z,94.89
2018-03-31T06:12:02.272Z,95.08
2018-03-31T06:13:02.288Z,94.79
2018-03-31T06:14:02.306Z,95.46
2018-03-31T06:15:02.368Z,95.36
2018-03-31T06:16:02.341Z,95.08
2018-03-31T06:17:02.357Z,95.46
2018-03-31T06:18:02.373Z,95.17
2018-03-31T06:19:02.399Z,95.27
2018-03-31T06:20:02.409Z,95.08
2018-03-31T06:21:02.428Z,95.75
2018-03-31T06:22:02.444Z,95.75
2018-03-31T06:23:02.461Z,95.65
2018-03-31T06:24:02.479Z,95.75
2018-03-31T06:25:02.496Z,95.17
2018-03-31T06:26:02.514Z,95.94
2018-03-31T06:27:02.532Z,95.75
2018-03-31T06:28:02.552Z,95.84
2018-03-31T06:29:02.565Z,95.55
2018-03-31T06:30:02.584Z,95.94
2018-03-31T06:31:02.600Z,96.69
2018-03-31T06:32:02.621Z,95.65
2018-03-31T06:33:02.636Z,96.69
2018-03-31T06:34:02.653Z,96.60
2018-03-31T06:35:02.669Z,95.46
2018-03-31T06:36:02.689Z,95.75
2018-03-31T06:37:02.705Z,96.22
2018-03-31T06:38:02.723Z,96.79
2018-03-31T06:39:02.747Z,97.07
2018-03-31T06:40:02.759Z,97.27
2018-03-31T06:41:02.776Z,96.41
2018-03-31T06:42:02.794Z,96.55
2018-03-31T06:43:02.811Z,97.03
2018-03-31T06:44:02.830Z,96.93
2018-03-31T06:45:02.846Z,97.27
2018-03-31T06:46:02.862Z,96.88
2018-03-31T06:47:02.881Z,96.88
2018-03-31T06:48:02.899Z,96.50
2018-03-31T06:49:02.916Z,96.88
2018-03-31T06:50:02.994Z,96.88
2018-03-31T06:51:02.952Z,97.07
2018-03-31T06:52:02.970Z,96.98
2018-03-31T06:53:02.987Z,96.60
2018-03-31T06:54:03.007Z,96.50
2018-03-31T06:55:03.023Z,97.07
2018-03-31T06:56:03.041Z,96.84
2018-03-31T06:57:03.056Z,96.50
2018-03-31T06:58:03.075Z,97.07
2018-03-31T06:59:03.093Z,96.74
2018-03-31T07:00:03.112Z,96.36
2018-03-31T07:01:03.128Z,96.45
2018-03-31T07:02:03.145Z,96.26
2018-03-31T07:03:03.165Z,97.12
2018-03-31T07:04:03.182Z,97.78
2018-03-31T07:05:03.199Z,96.65
2018-03-31T07:06:03.217Z,97.03
2018-03-31T07:07:03.238Z,97.03
2018-03-31T07:08:03.253Z,96.74
2018-03-31T07:09:03.270Z,97.03
2018-03-31T07:10:03.288Z,97.41
2018-03-31T07:11:03.307Z,96.84
2018-03-31T07:12:03.325Z,97.41
2018-03-31T07:13:03.342Z,97.97
2018-03-31T07:14:03.361Z,98.17
2018-03-31T07:15:03.380Z,97.22
2018-03-31T07:16:03.396Z,98.07
2018-03-31T07:17:03.413Z,97.97
2018-03-31T07:18:03.431Z,98.74
2018-03-31T07:19:03.449Z,98.60
2018-03-31T07:20:03.468Z,99.02
2018-03-31T07:21:03.485Z,98.69
2018-03-31T07:22:03.503Z,99.55
2018-03-31T07:23:03.521Z,99.55
2018-03-31T07:24:03.540Z,99.84
2018-03-31T07:25:03.558Z,99.99
2018-03-31T07:26:03.575Z,99.64
2018-03-31T07:27:03.595Z,98.79
2018-03-31T07:28:03.612Z,99.93
2018-03-31T07:29:03.630Z,99.99
2018-03-31T07:30:03.648Z,99.84
2018-03-31T07:31:03.666Z,99.99
2018-03-31T07:32:03.684Z,99.99
2018-03-31T07:33:03.701Z,99.99
2018-03-31T07:34:03.720Z,99.99
2018-03-31T07:35:03.739Z,99.99
2018-03-31T07:36:03.757Z,99.99
2018-03-31T07:37:03.779Z,99.99
2018-03-31T07:38:03.793Z,99.99
2018-03-31T07:39:03.811Z,99.99
2018-03-31T07:40:03.829Z,99.99
2018-03-31T07:41:03.848Z,99.99
2018-03-31T07:42:03.865Z,99.99
2018-03-31T07:43:03.883Z,99.99
2018-03-31T07:44:03.902Z,99.99
2018-03-31T07:45:03.920Z,99.99
2018-03-31T07:46:03.963Z,99.99
2018-03-31T07:47:03.955Z,99.99
2018-03-31T07:48:03.979Z,99.99
2018-03-31T07:49:03.992Z,99.99
2018-03-31T07:50:04.009Z,99.99
2018-03-31T07:51:04.028Z,99.99
2018-03-31T07:52:04.111Z,99.99
2018-03-31T07:53:04.063Z,99.99
2018-03-31T07:54:04.083Z,99.99
2018-03-31T07:55:04.101Z,99.99
2018-03-31T07:56:04.118Z,99.99
2018-03-31T07:57:04.135Z,99.99
2018-03-31T07:58:04.153Z,99.99
2018-03-31T07:59:04.174Z,99.99
2018-03-31T08:00:04.190Z,99.99
2018-03-31T08:01:04.208Z,99.99
2018-03-31T08:02:04.224Z,99.99
2018-03-31T08:03:04.245Z,99.99
2018-03-31T08:04:04.262Z,99.99
2018-03-31T08:05:04.280Z,99.99
2018-03-31T08:06:04.298Z,99.99
2018-03-31T08:07:04.316Z,99.99
2018-03-31T08:08:04.395Z,99.99
2018-03-31T08:09:04.352Z,99.99
2018-03-31T08:10:04.372Z,99.99
2018-03-31T08:11:04.390Z,99.99
2018-03-31T08:12:04.409Z,99.99
2018-03-31T08:13:04.425Z,99.99
2018-03-31T08:14:04.444Z,99.99
2018-03-31T08:15:04.463Z,99.99
2018-03-31T08:16:04.482Z,99.99
2018-03-31T08:17:04.500Z,99.99
2018-03-31T08:18:04.519Z,99.99
2018-03-31T08:19:04.537Z,99.99
2018-03-31T08:20:04.556Z,99.99
2018-03-31T08:21:04.574Z,99.99
2018-03-31T08:22:04.596Z,99.99
2018-03-31T08:23:04.611Z,99.99
2018-03-31T08:24:04.630Z,99.99
2018-03-31T08:25:04.647Z,99.99
2018-03-31T08:26:04.666Z,99.99
2018-03-31T08:27:04.686Z,99.99
2018-03-31T08:28:04.704Z,99.99
2018-03-31T08:29:04.722Z,99.99
2018-03-31T08:30:04.740Z,99.99
2018-03-31T08:31:04.759Z,99.99
2018-03-31T08:32:04.777Z,99.99
2018-03-31T08:33:04.796Z,99.99
2018-03-31T08:34:04.817Z,99.99
2018-03-31T08:35:04.833Z,99.99
2018-03-31T08:36:04.852Z,99.99
2018-03-31T08:37:04.871Z,99.99
2018-03-31T08:38:04.888Z,99.99
2018-03-31T08:39:04.908Z,99.99
2018-03-31T08:40:04.927Z,99.99
2018-03-31T08:41:04.944Z,99.99
2018-03-31T08:42:04.964Z,99.99
2018-03-31T08:43:04.987Z,99.99
2018-03-31T08:44:05.002Z,99.99
2018-03-31T08:45:05.019Z,99.99
2018-03-31T08:46:05.038Z,99.99
2018-03-31T08:47:05.129Z,99.99
2018-03-31T08:48:05.077Z,99.99
2018-03-31T08:49:05.096Z,99.99
2018-03-31T08:50:05.115Z,99.99
2018-03-31T08:51:05.134Z,99.99
2018-03-31T08:52:05.152Z,99.99
2018-03-31T08:53:05.170Z,99.99
2018-03-31T08:54:05.191Z,99.99
2018-03-31T08:55:05.209Z,99.99
2018-03-31T08:56:05.230Z,99.99
2018-03-31T08:57:05.248Z,99.99
2018-03-31T08:58:05.267Z,99.99
2018-03-31T08:59:05.288Z,99.99
2018-03-31T09:00:05.306Z,99.99
2018-03-31T09:01:05.325Z,99.99
2018-03-31T09:02:05.344Z,99.99
2018-03-31T09:03:05.414Z,99.99
2018-03-31T09:04:05.387Z,99.99
2018-03-31T09:05:05.402Z,99.99
2018-03-31T09:06:05.422Z,99.99
2018-03-31T09:07:05.443Z,99.99
2018-03-31T09:08:05.463Z,99.99
2018-03-31T09:09:05.482Z,99.99
2018-03-31T09:10:05.500Z,99.99
2018-03-31T09:11:05.520Z,99.99
2018-03-31T09:12:05.545Z,99.99
2018-03-31T09:13:05.557Z,99.99
2018-03-31T09:14:05.578Z,99.99
2018-03-31T09:15:05.599Z,99.99
2018-03-31T09:16:05.624Z,99.99
2018-03-31T09:17:05.637Z,99.99
2018-03-31T09:18:05.656Z,99.99
2018-03-31T09:19:05.674Z,99.99
2018-03-31T09:20:05.695Z,99.99
2018-03-31T09:21:05.713Z,99.99
2018-03-31T09:22:05.733Z,99.99
2018-03-31T09:23:05.755Z,99.99
2018-03-31T09:24:05.772Z,99.99
2018-03-31T09:25:05.791Z,97.36
2018-03-31T09:26:05.812Z,96.32
2018-03-31T09:27:05.832Z,98.51
2018-03-31T09:28:05.851Z,98.56
2018-03-31T09:29:05.870Z,96.27
2018-03-31T09:30:05.890Z,93.12
2018-03-31T09:31:05.909Z,88.70
2018-03-31T09:32:05.930Z,87.36
2018-03-31T09:33:05.949Z,87.84
2018-03-31T09:34:05.969Z,90.03
2018-03-31T09:35:05.989Z,90.31
2018-03-31T09:36:06.009Z,94.79
2018-03-31T09:37:06.029Z,95.65
2018-03-31T09:38:06.048Z,93.60
2018-03-31T09:39:06.068Z,94.27
2018-03-31T09:40:06.088Z,92.36
2018-03-31T09:41:06.107Z,91.03
2018-03-31T09:42:06.127Z,92.13
2018-03-31T09:43:06.152Z,94.03
2018-03-31T09:44:06.173Z,96.12
2018-03-31T09:45:06.193Z,97.36
2018-03-31T09:46:06.215Z,98.32
2018-03-31T09:47:06.229Z,99.22
2018-03-31T09:48:06.246Z,95.12
2018-03-31T09:49:06.266Z,95.32
2018-03-31T09:50:06.285Z,93.03
2018-03-31T09:51:06.306Z,91.03
2018-03-31T09:52:06.326Z,90.59
2018-03-31T09:53:06.346Z,87.64
2018-03-31T09:54:06.366Z,87.16
2018-03-31T09:55:06.535Z,86.49
2018-03-31T09:56:06.411Z,85.25
2018-03-31T09:57:06.426Z,84.11
2018-03-31T09:58:06.445Z,84.11
2018-03-31T09:59:06.466Z,80.16
2018-03-31T10:00:06.486Z,81.88
2018-03-31T10:01:06.506Z,83.12
2018-03-31T10:02:06.524Z,83.12
2018-03-31T10:03:06.546Z,82.45
2018-03-31T10:04:06.566Z,83.12
2018-03-31T10:05:06.585Z,84.64
2018-03-31T10:06:06.656Z,85.88
2018-03-31T10:07:06.628Z,84.64
2018-03-31T10:08:06.646Z,84.83
2018-03-31T10:09:06.665Z,84.36
2018-03-31T10:10:06.686Z,83.02
2018-03-31T10:11:06.706Z,84.16
2018-03-31T10:12:06.727Z,82.54
2018-03-31T10:13:06.745Z,82.17
2018-03-31T10:14:06.766Z,81.30
2018-03-31T10:15:06.787Z,80.96
2018-03-31T10:16:06.807Z,80.87
2018-03-31T10:17:06.827Z,81.35
2018-03-31T10:18:06.846Z,81.15
2018-03-31T10:19:06.870Z,82.87
2018-03-31T10:20:06.887Z,83.64
2018-03-31T10:21:06.906Z,83.25
2018-03-31T10:22:06.927Z,84.30
2018-03-31T10:23:06.946Z,85.06
2018-03-31T10:24:06.967Z,85.54
2018-03-31T10:25:06.989Z,83.25
2018-03-31T10:26:07.007Z,82.78
2018-03-31T10:27:07.027Z,82.40
2018-03-31T10:28:07.048Z,81.15
2018-03-31T10:29:07.067Z,78.58
2018-03-31T10:30:07.088Z,77.91
2018-03-31T10:31:07.108Z,80.11
2018-03-31T10:32:07.129Z,82.26
2018-03-31T10:33:07.148Z,84.45
2018-03-31T10:34:07.168Z,86.11
2018-03-31T10:35:07.189Z,82.49
2018-03-31T10:36:07.211Z,82.11
2018-03-31T10:37:07.229Z,80.87
2018-03-31T10:38:07.251Z,79.63
2018-03-31T10:39:07.269Z,77.53
2018-03-31T10:40:07.290Z,77.06
2018-03-31T10:41:07.309Z,76.62
2018-03-31T10:42:07.330Z,76.39
2018-03-31T10:43:07.351Z,75.81
2018-03-31T10:44:07.370Z,77.25
2018-03-31T10:45:07.390Z,78.30
2018-03-31T10:46:07.410Z,79.06
2018-03-31T10:47:07.681Z,77.95
2018-03-31T10:48:07.453Z,76.81
2018-03-31T10:49:07.470Z,74.99
2018-03-31T10:50:07.492Z,73.28
2018-03-31T10:51:07.512Z,74.13
2018-03-31T10:52:07.535Z,73.18
2018-03-31T10:53:07.551Z,72.71
2018-03-31T10:54:07.572Z,73.72
2018-03-31T10:55:07.593Z,74.99
2018-03-31T10:56:07.615Z,75.47
2018-03-31T10:57:07.635Z,76.23
2018-03-31T10:58:07.654Z,77.00
2018-03-31T10:59:07.677Z,75.95
2018-03-31T11:00:07.696Z,77.06
2018-03-31T11:01:07.724Z,77.06
2018-03-31T11:02:07.735Z,77.91
2018-03-31T11:03:07.760Z,77.76
2018-03-31T11:04:07.781Z,76.04
2018-03-31T11:05:07.798Z,74.42
2018-03-31T11:06:07.818Z,73.18
2018-03-31T11:07:07.840Z,71.94
2018-03-31T11:08:07.859Z,71.66
2018-03-31T11:09:07.881Z,71.08
2018-03-31T11:10:07.900Z,71.27
2018-03-31T11:11:07.920Z,72.32
2018-03-31T11:12:07.941Z,71.75
2018-03-31T11:13:07.960Z,70.79
2018-03-31T11:14:07.981Z,69.46
2018-03-31T11:15:08.001Z,69.74
2018-03-31T11:16:08.027Z,70.89
2018-03-31T11:17:08.042Z,70.42
2018-03-31T11:18:08.062Z,72.45
2018-03-31T11:19:08.083Z,70.64
2018-03-31T11:20:08.104Z,69.87
2018-03-31T11:21:08.129Z,69.40
2018-03-31T11:22:08.143Z,69.74
2018-03-31T11:23:08.169Z,70.79
2018-03-31T11:24:08.185Z,71.08
2018-03-31T11:25:08.205Z,67.93
2018-03-31T11:26:08.226Z,68.79
2018-03-31T11:27:08.247Z,69.49
2018-03-31T11:28:08.268Z,68.73
2018-03-31T11:29:08.288Z,68.73
2018-03-31T11:30:08.308Z,68.54
2018-03-31T11:31:08.329Z,68.73
2018-03-31T11:32:08.350Z,67.40
2018-03-31T11:33:08.372Z,68.16
2018-03-31T11:34:08.391Z,68.73
2018-03-31T11:35:08.412Z,68.82
2018-03-31T11:36:08.433Z,68.73
2018-03-31T11:37:08.453Z,68.63
2018-03-31T11:38:08.474Z,69.40
2018-03-31T11:39:08.496Z,70.36
2018-03-31T11:40:08.527Z,70.83
2018-03-31T11:41:08.536Z,71.21
2018-03-31T11:42:08.557Z,71.21
2018-03-31T11:43:08.578Z,72.45
2018-03-31T11:44:08.599Z,72.26
2018-03-31T11:45:08.620Z,72.93
2018-03-31T11:46:08.643Z,73.03
2018-03-31T11:47:08.662Z,73.75
2018-03-31T11:48:08.682Z,74.32
2018-03-31T11:49:08.703Z,73.79
2018-03-31T11:50:08.724Z,73.60
2018-03-31T11:51:08.745Z,73.41
2018-03-31T11:52:08.768Z,69.78
2018-03-31T11:53:08.786Z,67.97
2018-03-31T11:54:08.808Z,67.49
2018-03-31T11:55:08.829Z,66.63
2018-03-31T11:56:08.850Z,66.25
2018-03-31T11:57:08.871Z,66.35
2018-03-31T11:58:08.891Z,68.26
2018-03-31T11:59:08.913Z,67.77
2018-03-31T12:00:08.934Z,66.25
2018-03-31T12:01:08.954Z,64.91
2018-03-31T12:02:08.976Z,64.05
2018-03-31T12:03:08.999Z,63.20
2018-03-31T12:04:09.018Z,63.57
2018-03-31T12:05:09.038Z,63.96
2018-03-31T12:06:09.059Z,64.15
2018-03-31T12:07:09.083Z,64.53
2018-03-31T12:08:09.101Z,64.91
2018-03-31T12:09:09.122Z,65.30
2018-03-31T12:10:09.143Z,63.57
2018-03-31T12:11:09.223Z,63.48
2018-03-31T12:12:09.188Z,64.43
2018-03-31T12:13:09.204Z,64.81
2018-03-31T12:14:09.226Z,63.86
2018-03-31T12:15:09.298Z,63.86
2018-03-31T12:16:09.269Z,63.89
2018-03-31T12:17:09.288Z,63.99
2018-03-31T12:18:09.309Z,63.70
2018-03-31T12:19:09.331Z,64.53
2018-03-31T12:20:09.356Z,62.43
2018-03-31T12:21:09.372Z,58.99
2018-03-31T12:22:09.392Z,58.61
2018-03-31T12:23:09.415Z,58.51
2018-03-31T12:24:09.436Z,58.23
2018-03-31T12:25:09.457Z,58.36
2018-03-31T12:26:09.477Z,58.36
2018-03-31T12:27:09.533Z,57.87
2018-03-31T12:28:09.518Z,58.73
2018-03-31T12:29:09.539Z,58.36
2018-03-31T12:30:09.560Z,57.85
2018-03-31T12:31:09.582Z,59.38
2018-03-31T12:32:09.603Z,57.85
2018-03-31T12:33:09.623Z,58.90
2018-03-31T12:34:09.647Z,60.33
2018-03-31T12:35:09.666Z,59.85
2018-03-31T12:36:09.686Z,59.98
2018-03-31T12:37:09.706Z,59.98
2018-03-31T12:38:09.727Z,60.07
2018-03-31T12:39:09.748Z,58.83
2018-03-31T12:40:09.770Z,58.73
2018-03-31T12:41:09.789Z,57.87
2018-03-31T12:42:09.811Z,56.06
2018-03-31T12:43:09.932Z,57.02
2018-03-31T12:44:09.853Z,56.54
2018-03-31T12:45:09.874Z,57.87
2018-03-31T12:46:09.899Z,58.93
2018-03-31T12:47:09.918Z,59.78
2018-03-31T12:48:09.939Z,61.41
2018-03-31T12:49:09.958Z,61.51
2018-03-31T12:50:09.979Z,60.93
2018-03-31T12:51:10.005Z,59.88
2018-03-31T12:52:10.024Z,59.12
2018-03-31T12:53:10.042Z,58.45